Time;durP1;ratioP1;P1;durP2;ratioP2;P2;SDS_P1;SDS_P2;PMS_P1;PMS_P2;Temp;Humidity;BMP_temperature;BMP_pressure;BME280_temperature;BME280_humidity;BME280_pressure;Samples;Min_cycle;Max_cycle;Signal;HPM_P1;HPM_P2
2021/05/27 00:00:34;;;;;;;4.83;2.80;;;;;;;14.31;62.65;100077.16;1758948;79;25484;-73
2021/05/27 00:03:02;;;;;;;5.87;2.27;;;;;;;14.31;62.81;100076.36;1758244;80;25523;-73
2021/05/27 00:05:29;;;;;;;9.40;2.85;;;;;;;14.38;63.37;100091.16;1758331;80;25177;-73
2021/05/27 00:07:56;;;;;;;5.80;2.50;;;;;;;14.35;63.28;100106.02;1758124;80;25636;-73
2021/05/27 00:10:27;;;;;;;5.78;2.42;;;;;;;14.23;63.39;100094.42;1756411;79;25901;-73
2021/05/27 00:12:54;;;;;;;5.60;2.65;;;;;;;14.17;63.70;100083.38;1758292;80;25598;-73
2021/05/27 00:15:23;;;;;;;5.70;2.62;;;;;;;14.18;64.21;100084.48;1758265;80;25597;-72
2021/05/27 00:17:49;;;;;;;4.00;2.50;;;;;;;14.18;64.53;100082.36;1759620;80;25951;-73
2021/05/27 00:20:16;;;;;;;5.10;2.70;;;;;;;14.16;64.70;100083.08;1757719;80;32432;-73
2021/05/27 00:22:42;;;;;;;5.22;3.00;;;;;;;14.13;65.01;100066.36;1758566;79;25556;-73
2021/05/27 00:25:11;;;;;;;5.92;3.05;;;;;;;14.15;65.12;100049.39;1757188;79;25567;-73
2021/05/27 00:27:37;;;;;;;9.90;2.90;;;;;;;14.16;65.44;100054.17;1759602;80;25493;-73
2021/05/27 00:30:07;;;;;;;8.75;3.17;;;;;;;14.14;65.55;100049.60;1757170;80;25828;-73
2021/05/27 00:32:33;;;;;;;6.70;3.00;;;;;;;14.14;65.66;100037.77;1758362;80;25512;-73
2021/05/27 00:34:59;;;;;;;5.65;2.55;;;;;;;14.16;65.77;100039.71;1758340;80;25716;-73
2021/05/27 00:37:25;;;;;;;6.22;2.70;;;;;;;14.12;65.82;100048.98;1758160;80;25708;-73
2021/05/27 00:39:52;;;;;;;6.05;2.62;;;;;;;14.07;65.65;100071.09;1757206;79;31359;-73
2021/05/27 00:42:18;;;;;;;6.72;2.55;;;;;;;13.92;66.07;100093.56;1759523;80;25141;-76
2021/05/27 00:44:58;;;;;;;5.40;2.25;;;;;;;13.85;66.36;100091.39;1758608;79;25525;-77
2021/05/27 00:47:25;;;;;;;6.60;2.60;;;;;;;13.85;66.70;100084.31;1756785;80;25730;-76
2021/05/27 00:49:51;;;;;;;7.20;2.58;;;;;;;13.82;67.05;100091.27;1759103;79;26586;-77
2021/05/27 00:52:18;;;;;;;9.83;2.45;;;;;;;13.81;67.25;100073.89;1758058;80;25685;-76
2021/05/27 00:54:45;;;;;;;5.53;2.70;;;;;;;13.77;67.30;100055.06;1758216;80;25519;-77
2021/05/27 00:57:17;;;;;;;5.87;2.65;;;;;;;13.81;67.58;100032.38;1758759;80;25534;-77
2021/05/27 00:59:44;;;;;;;6.53;2.20;;;;;;;13.76;67.70;100035.57;1757410;80;25620;-76
2021/05/27 01:02:10;;;;;;;5.25;2.50;;;;;;;13.76;67.87;100035.57;1756585;80;25598;-76
2021/05/27 01:04:36;;;;;;;5.28;2.33;;;;;;;13.80;68.10;100032.84;1758176;80;25651;-73
2021/05/27 01:07:03;;;;;;;4.70;2.17;;;;;;;13.82;68.22;100031.35;1758953;80;25542;-73
2021/05/27 01:09:29;;;;;;;7.47;2.52;;;;;;;13.90;68.39;100031.20;1755893;79;25506;-73
2021/05/27 01:11:55;;;;;;;6.45;2.95;;;;;;;13.89;68.33;100029.08;1757062;80;25559;-74
2021/05/27 01:16:51;;;;;;;7.80;2.77;;;;;;;13.79;68.22;100027.80;1706496;80;25735;-73
2021/05/27 01:19:17;;;;;;;9.03;2.45;;;;;;;13.66;68.50;100030.66;1759107;80;25203;-73
2021/05/27 01:21:44;;;;;;;5.12;2.42;;;;;;;13.58;68.57;100040.50;1756444;80;32750;-76
2021/05/27 01:24:12;;;;;;;3.12;1.87;;;;;;;13.51;68.70;100037.34;1759260;80;25798;-77
2021/05/27 01:26:40;;;;;;;3.65;2.10;;;;;;;13.50;69.00;100042.30;1732601;80;25635;-74
2021/05/27 01:29:06;;;;;;;7.12;2.30;;;;;;;13.49;69.07;100052.97;1756175;80;25393;-74
2021/05/27 01:31:33;;;;;;;5.87;2.35;;;;;;;13.51;69.38;100058.34;1758217;80;34722;-73
2021/05/27 01:33:59;;;;;;;4.78;2.35;;;;;;;13.50;69.38;100057.21;1756373;79;25192;-73
2021/05/27 01:36:25;;;;;;;7.58;2.65;;;;;;;13.51;69.58;100062.79;1757218;80;25619;-76
2021/05/27 01:38:50;;;;;;;5.37;2.37;;;;;;;13.50;69.47;100071.66;1757250;80;33550;-76
2021/05/27 01:41:16;;;;;;;4.65;2.47;;;;;;;13.44;69.60;100077.67;1757306;80;30808;-76
2021/05/27 01:43:44;;;;;;;5.53;2.30;;;;;;;13.36;69.81;100076.50;1758617;79;25553;-77
2021/05/27 01:46:10;;;;;;;4.83;2.20;;;;;;;13.29;69.94;100080.40;1756610;79;32378;-73
2021/05/27 01:48:37;;;;;;;6.45;2.42;;;;;;;13.26;70.23;100078.16;1757580;79;25644;-73
2021/05/27 01:51:05;;;;;;;4.40;2.30;;;;;;;13.23;70.34;100079.31;1755875;80;33448;-73
2021/05/27 01:53:31;;;;;;;6.67;2.80;;;;;;;13.23;70.44;100075.38;1757366;80;25167;-76
2021/05/27 01:55:58;;;;;;;6.25;2.47;;;;;;;13.29;70.68;100079.89;1757888;80;25715;-73
2021/05/27 01:58:25;;;;;;;6.10;2.85;;;;;;;13.32;70.67;100083.95;1759138;79;32198;-73
2021/05/27 02:00:50;;;;;;;6.55;2.90;;;;;;;13.38;70.86;100079.25;1759405;80;25597;-76
2021/05/27 02:03:18;;;;;;;5.45;2.77;;;;;;;13.47;70.82;100082.55;1759204;80;25550;-76
2021/05/27 02:05:46;;;;;;;8.28;3.00;;;;;;;13.55;70.88;100087.65;1757017;80;25261;-77
2021/05/27 02:08:13;;;;;;;5.08;2.40;;;;;;;13.58;70.97;100079.89;1757815;80;34699;-76
2021/05/27 02:10:47;;;;;;;6.17;2.62;;;;;;;13.58;71.04;100075.45;1757291;80;25506;-76
2021/05/27 02:13:13;;;;;;;6.53;2.58;;;;;;;13.59;70.98;100075.78;1759820;80;25569;-76
2021/05/27 02:15:41;;;;;;;6.37;2.60;;;;;;;13.59;70.97;100071.03;1757442;79;25576;-76
2021/05/27 02:18:08;;;;;;;3.85;2.30;;;;;;;13.58;70.97;100077.27;1758094;79;25632;-77
2021/05/27 02:20:35;;;;;;;5.10;2.47;;;;;;;13.59;71.15;100072.34;1757634;80;26049;-76
2021/05/27 02:23:02;;;;;;;7.50;2.50;;;;;;;13.54;71.12;100074.22;1758889;80;25159;-76
2021/05/27 02:25:36;;;;;;;3.90;2.37;;;;;;;13.52;71.08;100070.46;1754936;79;25960;-76
2021/05/27 02:28:03;;;;;;;5.10;2.42;;;;;;;13.54;71.12;100065.03;1756679;80;25594;-72
2021/05/27 02:30:29;;;;;;;5.83;2.67;;;;;;;13.55;71.17;100059.57;1759049;79;25678;-73
2021/05/27 02:32:56;;;;;;;6.12;2.60;;;;;;;13.57;71.18;100059.90;1759093;80;25728;-73
2021/05/27 02:35:23;;;;;;;8.23;2.77;;;;;;;13.54;71.21;100054.53;1730204;80;25636;-73
2021/05/27 02:37:51;;;;;;;4.62;2.37;;;;;;;13.57;71.17;100057.27;1756383;80;25783;-73
2021/05/27 02:40:18;;;;;;;9.55;2.80;;;;;;;13.57;71.14;100049.39;1758969;80;25583;-73
2021/05/27 02:42:45;;;;;;;7.03;2.70;;;;;;;13.60;71.18;100045.06;1756346;79;25716;-73
2021/05/27 02:45:13;;;;;;;8.75;2.58;;;;;;;13.60;70.99;100051.13;1758746;80;25643;-77
2021/05/27 02:47:41;;;;;;;8.45;3.10;;;;;;;13.56;71.00;100051.22;1734164;80;25609;-76
2021/05/27 02:50:09;;;;;;;6.67;2.95;;;;;;;13.50;70.99;100047.55;1757213;80;25775;-76
2021/05/27 02:52:36;;;;;;;5.12;2.75;;;;;;;13.47;71.18;100042.65;1714495;81;25656;-74
2021/05/27 02:55:03;;;;;;;6.78;2.98;;;;;;;13.48;71.29;100046.92;1754593;79;25816;-76
2021/05/27 02:57:31;;;;;;;5.10;2.95;;;;;;;13.45;71.30;100053.03;1758685;80;25708;-76
2021/05/27 02:59:57;;;;;;;5.03;2.92;;;;;;;13.43;71.30;100049.30;1758883;80;25566;-76
2021/05/27 03:02:25;;;;;;;6.87;2.85;;;;;;;13.46;71.53;100054.17;1755211;80;25754;-77
2021/05/27 03:04:52;;;;;;;6.08;3.00;;;;;;;13.47;71.39;100049.72;1756435;79;25589;-77
2021/05/27 03:07:20;;;;;;;5.83;2.55;;;;;;;13.50;71.54;100051.96;1697983;79;25581;-76
2021/05/27 03:09:46;;;;;;;9.00;3.67;;;;;;;13.49;71.35;100054.29;1703911;83;25569;-76
2021/05/27 03:12:14;;;;;;;6.75;3.10;;;;;;;13.46;71.33;100056.80;1704753;83;25697;-76
2021/05/27 03:14:42;;;;;;;9.05;3.20;;;;;;;13.44;71.40;100057.48;1702329;83;25772;-76
2021/05/27 03:17:10;;;;;;;6.08;2.80;;;;;;;13.42;71.44;100062.61;1703977;83;25577;-77
2021/05/27 03:19:36;;;;;;;6.67;2.70;;;;;;;13.44;71.48;100060.61;1701876;83;26013;-76
2021/05/27 03:22:03;;;;;;;5.12;2.80;;;;;;;13.46;71.61;100062.55;1700665;83;25527;-77
2021/05/27 03:24:31;;;;;;;9.35;3.05;;;;;;;13.48;71.62;100060.55;1701245;83;26578;-74
2021/05/27 03:26:57;;;;;;;7.25;3.17;;;;;;;13.48;71.48;100065.80;1702513;83;26450;-74
2021/05/27 03:29:25;;;;;;;5.33;2.55;;;;;;;13.40;71.43;100069.88;1701775;83;25603;-74
2021/05/27 03:31:51;;;;;;;6.28;3.37;;;;;;;13.33;71.65;100065.38;1699547;83;25849;-73
2021/05/27 03:34:17;;;;;;;6.75;2.72;;;;;;;13.31;71.76;100067.87;1701719;83;25502;-73
2021/05/27 03:36:44;;;;;;;6.83;3.15;;;;;;;13.24;71.71;100060.44;1699412;83;26437;-73
2021/05/27 03:39:12;;;;;;;8.03;2.42;;;;;;;13.20;71.72;100062.61;1700076;83;26640;-73
2021/05/27 03:41:38;;;;;;;5.78;2.20;;;;;;;13.21;71.76;100064.75;1702730;83;32697;-76
2021/05/27 03:44:06;;;;;;;4.50;2.50;;;;;;;13.21;71.80;100067.37;1702581;83;25562;-77
2021/05/27 03:46:35;;;;;;;7.20;2.52;;;;;;;13.21;71.79;100059.50;1700133;83;25569;-76
2021/05/27 03:49:02;;;;;;;8.95;3.02;;;;;;;13.19;71.96;100061.50;1699510;83;25941;-76
2021/05/27 03:51:28;;;;;;;7.30;2.70;;;;;;;13.19;71.97;100064.93;1701082;83;25621;-76
2021/05/27 03:53:55;;;;;;;10.63;4.12;;;;;;;13.19;72.04;100059.69;1702839;83;33102;-76
2021/05/27 03:56:21;;;;;;;6.20;2.70;;;;;;;13.22;72.10;100072.42;1702942;83;25234;-76
2021/05/27 04:01:34;;;;;;;5.37;2.65;;;;;;;13.27;72.07;100067.45;1698960;83;25527;-74
2021/05/27 04:07:16;;;;;;;3.75;2.30;;;;;;;13.28;71.70;100073.00;1696887;83;25584;-76
2021/05/27 04:09:42;;;;;;;5.97;2.47;;;;;;;13.31;71.79;100076.59;1692288;83;25580;-74
2021/05/27 04:17:40;;;;;;;4.58;2.10;;;;;;;13.34;70.93;100080.64;1672593;83;25760;-76
2021/05/27 04:20:08;;;;;;;3.10;2.00;;;;;;;13.32;70.85;100082.64;1695544;83;25576;-76
2021/05/27 04:22:34;;;;;;;4.83;2.05;;;;;;;13.30;70.49;100080.19;1693915;83;25633;-76
2021/05/27 04:25:00;;;;;;;4.85;2.00;;;;;;;13.29;70.51;100088.27;1691053;83;34744;-73
2021/05/27 04:27:26;;;;;;;3.92;1.87;;;;;;;13.28;70.44;100099.25;1691515;83;25646;-76
2021/05/27 04:29:53;;;;;;;2.92;1.47;;;;;;;13.27;70.45;100092.89;1724341;81;26365;-76
2021/05/27 04:35:06;;;;;;;3.33;2.05;;;;;;;13.30;70.23;100094.63;1723149;81;25628;-73
2021/05/27 04:37:32;;;;;;;6.50;1.95;;;;;;;13.33;70.07;100096.88;1725280;81;25260;-76
2021/05/27 04:39:57;;;;;;;4.05;2.00;;;;;;;13.35;70.08;100086.20;1724472;81;32791;-76
2021/05/27 04:42:23;;;;;;;4.78;1.87;;;;;;;13.38;70.07;100084.50;1723160;81;25792;-76
2021/05/27 04:44:49;;;;;;;4.55;2.17;;;;;;;13.39;69.69;100089.24;1696817;82;33114;-76
2021/05/27 04:47:15;;;;;;;5.93;2.13;;;;;;;13.43;69.85;100100.50;1724831;81;30469;-76
2021/05/27 04:49:41;;;;;;;5.83;2.10;;;;;;;13.54;69.37;100098.66;1726107;81;35143;-76
2021/05/27 04:52:07;;;;;;;3.20;1.90;;;;;;;13.54;69.37;100098.66;1725383;81;32294;-76
2021/05/27 04:54:33;;;;;;;7.20;2.12;;;;;;;13.62;69.57;100102.97;1729035;81;25476;-76
2021/05/27 04:56:59;;;;;;;3.65;2.02;;;;;;;13.66;69.27;100106.81;1728659;81;33229;-76
2021/05/27 04:59:25;;;;;;;3.58;1.85;;;;;;;13.70;68.87;100102.82;1712947;81;25591;-76
2021/05/27 05:01:51;;;;;;;4.25;2.15;;;;;;;13.71;68.89;100098.37;1724790;81;34765;-76
2021/05/27 05:04:17;;;;;;;6.10;2.67;;;;;;;13.73;68.41;100101.12;1725634;81;32972;-76
2021/05/27 05:06:42;;;;;;;4.95;1.85;;;;;;;13.76;68.55;100115.18;1721957;81;25629;-73
2021/05/27 05:09:08;;;;;;;5.12;1.98;;;;;;;13.81;67.85;100117.24;1728017;81;33049;-74
2021/05/27 05:11:34;;;;;;;2.92;1.92;;;;;;;13.82;68.06;100109.66;1725067;81;31086;-74
2021/05/27 05:14:00;;;;;;;4.42;2.10;;;;;;;13.83;67.65;100108.67;1721990;81;34662;-73
2021/05/27 05:16:26;;;;;;;4.60;1.77;;;;;;;13.83;67.81;100115.72;1725553;81;25582;-76
2021/05/27 05:18:52;;;;;;;3.10;1.72;;;;;;;13.84;67.69;100115.54;1724703;81;25574;-77
2021/05/27 05:21:18;;;;;;;3.90;2.10;;;;;;;13.90;67.71;100115.27;1724672;81;33073;-77
2021/05/27 05:23:44;;;;;;;4.90;2.22;;;;;;;13.95;67.17;100113.69;1722353;81;31182;-76
2021/05/27 05:26:11;;;;;;;4.33;1.75;;;;;;;14.03;67.65;100105.34;1720273;81;25775;-77
2021/05/27 05:28:37;;;;;;;6.05;1.92;;;;;;;14.10;67.02;100110.92;1723427;81;25396;-76
2021/05/27 05:31:03;;;;;;;2.90;1.77;;;;;;;14.13;67.17;100109.25;1691952;83;25542;-76
2021/05/27 05:33:29;;;;;;;5.30;1.75;;;;;;;13.95;65.94;100091.86;1722069;81;33147;-76
2021/05/27 05:35:55;;;;;;;9.43;2.10;;;;;;;13.95;65.94;100091.86;1671245;82;25583;-74
2021/05/27 05:38:21;;;;;;;6.25;1.82;;;;;;;13.99;66.39;100117.56;1722899;81;35062;-73
2021/05/27 05:40:48;;;;;;;4.55;1.98;;;;;;;13.98;66.31;100108.04;1720233;81;25744;-73
2021/05/27 05:43:14;;;;;;;7.30;2.20;;;;;;;13.95;66.40;100120.25;1724123;81;25560;-74
2021/05/27 05:45:39;;;;;;;3.42;2.00;;;;;;;13.92;66.45;100125.90;1722542;81;33677;-73
2021/05/27 05:48:07;;;;;;;3.83;1.80;;;;;;;13.93;66.53;100129.33;1720095;81;30723;-74
2021/05/27 05:50:48;;;;;;;6.95;2.12;;;;;;;13.90;66.62;100132.34;1721677;81;25664;-76
2021/05/27 05:53:22;;;;;;;5.28;1.55;;;;;;;13.86;66.57;100129.78;1723288;81;25612;-76
2021/05/27 05:55:51;;;;;;;3.72;2.05;;;;;;;13.82;66.61;100135.92;1720166;81;25682;-76
2021/05/27 05:58:18;;;;;;;3.98;2.08;;;;;;;13.81;66.61;100142.70;1724462;81;25558;-74
2021/05/27 06:00:44;;;;;;;4.78;1.85;;;;;;;13.81;66.78;100140.88;1721198;81;26441;-73
2021/05/27 06:03:12;;;;;;;5.10;1.80;;;;;;;13.84;66.92;100143.13;1721195;81;25283;-76
2021/05/27 06:05:46;;;;;;;4.42;1.90;;;;;;;13.87;66.67;100134.86;1640396;81;25581;-76
2021/05/27 06:08:23;;;;;;;6.80;2.22;;;;;;;13.90;66.88;100136.29;1718958;81;25786;-76
2021/05/27 06:10:49;;;;;;;6.83;1.95;;;;;;;14.02;67.02;100138.67;1723173;81;33192;-76
2021/05/27 06:13:15;;;;;;;3.12;1.70;;;;;;;14.13;66.85;100133.38;1724383;81;31212;-76
2021/05/27 06:15:42;;;;;;;5.60;2.37;;;;;;;14.23;66.35;100135.16;1724072;81;25526;-74
2021/05/27 06:18:08;;;;;;;3.95;2.33;;;;;;;14.34;66.68;100131.17;1721154;81;25565;-74
2021/05/27 06:20:35;;;;;;;4.25;2.08;;;;;;;14.48;66.55;100130.73;1700970;81;25823;-74
2021/05/27 06:23:03;;;;;;;4.83;2.15;;;;;;;14.62;66.71;100126.69;1715034;81;25272;-73
2021/05/27 06:25:31;;;;;;;4.87;2.58;;;;;;;14.74;66.42;100134.00;1720747;81;25533;-74
2021/05/27 06:27:57;;;;;;;6.08;2.55;;;;;;;14.78;65.62;100129.45;1720696;81;25560;-74
2021/05/27 06:30:27;;;;;;;3.83;2.05;;;;;;;14.80;64.73;100129.26;1693727;82;25175;-74
2021/05/27 06:32:52;;;;;;;4.83;1.80;;;;;;;14.77;64.71;100130.47;1719034;81;25651;-75
2021/05/27 06:35:19;;;;;;;4.05;1.82;;;;;;;14.77;65.10;100129.66;1724322;81;33135;-75
2021/05/27 06:37:44;;;;;;;5.25;2.02;;;;;;;14.89;65.22;100135.95;1722326;81;25224;-76
2021/05/27 06:40:16;;;;;;;6.03;1.90;;;;;;;14.95;64.36;100131.23;1701699;82;34799;-75
2021/05/27 06:42:43;;;;;;;4.75;2.00;;;;;;;14.95;63.73;100135.18;1723613;81;25620;-75
2021/05/27 06:45:11;;;;;;;6.30;2.08;;;;;;;14.87;63.84;100136.17;1708282;81;27018;-75
2021/05/27 06:47:37;;;;;;;4.65;1.98;;;;;;;14.77;63.78;100138.36;1691936;83;25618;-75
2021/05/27 06:50:05;;;;;;;5.80;2.50;;;;;;;14.71;64.21;100137.84;1725176;81;25504;-74
2021/05/27 06:52:31;;;;;;;6.28;1.62;;;;;;;14.78;64.56;100143.91;1710812;81;25459;-76
2021/05/27 06:54:57;;;;;;;8.23;2.12;;;;;;;14.92;64.42;100147.39;1725818;81;25178;-77
2021/05/27 06:57:23;;;;;;;10.85;2.02;;;;;;;14.94;63.87;100148.53;1713095;82;25446;-76
2021/05/27 06:59:49;;;;;;;2.75;1.62;;;;;;;14.88;63.29;100145.67;1696070;82;33020;-75
2021/05/27 07:02:17;;;;;;;6.10;2.33;;;;;;;14.83;62.79;100145.96;1720245;81;31208;-76
2021/05/27 07:04:44;;;;;;;3.80;1.60;;;;;;;14.83;63.35;100155.17;1719965;81;25700;-76
2021/05/27 07:07:10;;;;;;;6.92;2.00;;;;;;;14.94;63.66;100157.73;1723205;81;25255;-76
2021/05/27 07:09:38;;;;;;;4.92;2.00;;;;;;;15.03;62.94;100154.73;1721724;81;26015;-76
2021/05/27 07:12:05;;;;;;;5.15;1.77;;;;;;;15.13;61.92;100152.21;1722600;81;25792;-75
2021/05/27 07:14:32;;;;;;;4.33;1.70;;;;;;;15.18;62.45;100150.60;1725790;81;25321;-76
2021/05/27 07:17:04;;;;;;;2.15;1.55;;;;;;;15.21;62.23;100152.02;1720292;81;25207;-76
2021/05/27 07:19:29;;;;;;;6.55;1.55;;;;;;;15.31;61.62;100156.40;1722205;81;25536;-77
2021/05/27 07:21:54;;;;;;;1.92;1.20;;;;;;;15.45;61.01;100153.27;1723452;81;25526;-76
2021/05/27 07:24:20;;;;;;;3.47;1.55;;;;;;;15.57;60.45;100156.91;1726376;81;33098;-76
2021/05/27 07:26:46;;;;;;;3.20;1.45;;;;;;;15.62;59.77;100167.66;1723342;81;31813;-76
2021/05/27 07:29:12;;;;;;;5.03;1.72;;;;;;;15.68;59.66;100165.55;1723789;81;34759;-75
2021/05/27 07:31:38;;;;;;;3.10;1.80;;;;;;;15.68;59.66;100165.55;1724694;81;32984;-74
2021/05/27 07:34:06;;;;;;;3.30;1.47;;;;;;;15.56;59.14;100163.71;1721676;81;26571;-78
2021/05/27 07:36:33;;;;;;;2.37;1.50;;;;;;;15.43;59.25;100174.53;1726002;81;25237;-77
2021/05/27 07:38:59;;;;;;;6.72;1.77;;;;;;;15.31;59.22;100180.10;1723040;81;25304;-78
2021/05/27 07:41:25;;;;;;;5.35;2.05;;;;;;;15.31;59.96;100175.64;1723316;81;35150;-74
2021/05/27 07:43:52;;;;;;;3.77;1.45;;;;;;;15.38;59.32;100189.31;1712416;81;32387;-78
2021/05/27 07:46:20;;;;;;;2.30;1.30;;;;;;;15.38;59.32;100189.31;1724638;81;26491;-77
2021/05/27 07:48:46;;;;;;;3.27;1.60;;;;;;;15.44;59.15;100188.50;1721173;81;25195;-73
2021/05/27 07:51:13;;;;;;;3.20;1.50;;;;;;;15.54;58.46;100189.73;1725268;81;25247;-75
2021/05/27 07:53:39;;;;;;;6.22;1.82;;;;;;;15.56;58.45;100189.55;1726001;81;25193;-72
2021/05/27 07:56:05;;;;;;;5.33;1.22;;;;;;;15.57;58.54;100205.64;1727130;81;32354;-73
2021/05/27 07:58:32;;;;;;;5.30;1.52;;;;;;;15.55;57.96;100209.01;1725741;81;25662;-73
2021/05/27 08:00:58;;;;;;;4.87;1.52;;;;;;;15.45;58.38;100213.85;1724844;81;25676;-72
2021/05/27 08:03:24;;;;;;;4.03;1.40;;;;;;;15.28;57.83;100208.95;1722083;81;25607;-72
2021/05/27 08:05:50;;;;;;;5.45;1.52;;;;;;;15.26;58.41;100203.08;1728198;81;35095;-73
2021/05/27 08:08:16;;;;;;;8.48;1.62;;;;;;;15.38;58.17;100201.16;1724100;81;32288;-78
2021/05/27 08:10:42;;;;;;;2.27;1.20;;;;;;;15.44;58.14;100209.09;1725996;81;25564;-73
2021/05/27 08:13:07;;;;;;;3.83;1.35;;;;;;;15.63;57.38;100210.13;1726200;81;33603;-81
2021/05/27 08:15:34;;;;;;;3.33;1.40;;;;;;;15.63;57.38;100210.13;1727195;81;31146;-79
2021/05/27 08:17:59;;;;;;;1.75;1.15;;;;;;;15.69;58.06;100211.98;1727026;81;25144;-79
2021/05/27 08:20:26;;;;;;;1.92;1.12;;;;;;;15.78;56.80;100223.64;1729123;81;32374;-75
2021/05/27 08:22:52;;;;;;;2.72;1.40;;;;;;;15.76;57.30;100216.73;1727098;81;25635;-75
2021/05/27 08:25:18;;;;;;;1.60;1.02;;;;;;;15.78;56.40;100215.73;1726408;81;33561;-75
2021/05/27 08:27:44;;;;;;;3.70;1.20;;;;;;;15.79;56.45;100222.61;1724917;81;31242;-75
2021/05/27 08:30:10;;;;;;;1.90;1.00;;;;;;;15.86;57.68;100212.90;1693383;81;34700;-76
2021/05/27 08:32:36;;;;;;;2.10;1.20;;;;;;;15.95;57.04;100218.25;1720189;81;25198;-78
2021/05/27 08:35:05;;;;;;;1.70;0.90;;;;;;;15.97;55.53;100213.08;1725049;81;25659;-76
2021/05/27 08:37:31;;;;;;;2.33;1.30;;;;;;;15.91;55.67;100222.33;1728048;81;25614;-76
2021/05/27 08:39:57;;;;;;;1.77;1.30;;;;;;;15.84;55.81;100224.95;1723312;81;25601;-76
2021/05/27 08:42:23;;;;;;;3.95;1.02;;;;;;;15.86;56.29;100226.87;1724049;81;35276;-76
2021/05/27 08:44:50;;;;;;;1.85;1.17;;;;;;;16.03;55.99;100222.00;1718114;81;25761;-76
2021/05/27 08:47:17;;;;;;;2.35;1.07;;;;;;;16.12;55.92;100228.70;1719299;81;26328;-76
2021/05/27 08:49:49;;;;;;;5.35;1.50;;;;;;;16.17;55.20;100226.75;1725367;81;25209;-76
2021/05/27 08:52:15;;;;;;;3.83;1.30;;;;;;;16.29;56.14;100236.99;1720378;81;26396;-76
2021/05/27 08:54:42;;;;;;;2.47;1.02;;;;;;;16.38;53.73;100243.66;1723785;81;25229;-76
2021/05/27 08:57:08;;;;;;;2.70;1.10;;;;;;;16.45;54.55;100234.92;1723139;81;25454;-77
2021/05/27 08:59:34;;;;;;;2.42;1.20;;;;;;;16.59;54.18;100231.25;1721487;81;26147;-77
2021/05/27 09:02:10;;;;;;;3.10;1.20;;;;;;;16.73;54.79;100226.73;1721984;81;25688;-76
2021/05/27 09:04:38;;;;;;;2.98;1.32;;;;;;;16.98;54.63;100231.63;1718726;81;25223;-76
2021/05/27 09:07:05;;;;;;;3.20;1.20;;;;;;;17.11;51.77;100236.05;1723239;81;25187;-76
2021/05/27 09:09:51;;;;;;;5.47;1.37;;;;;;;17.08;50.88;100229.36;1721874;81;25599;-76
2021/05/27 09:12:34;;;;;;;1.27;0.93;;;;;;;17.09;49.67;100236.77;1722033;81;26247;-74
2021/05/27 09:15:04;;;;;;;4.70;1.00;;;;;;;16.99;48.77;100231.12;1725441;81;25276;-76
2021/05/27 09:17:49;;;;;;;2.58;0.90;;;;;;;16.92;51.30;100244.36;1724703;81;25601;-76
2021/05/27 09:20:26;;;;;;;5.20;1.00;;;;;;;16.88;50.58;100249.74;1665448;84;25606;-74
2021/05/27 09:23:15;;;;;;;1.45;1.00;;;;;;;16.78;50.67;100254.16;1668468;84;25545;-77
2021/05/27 09:25:45;;;;;;;3.40;1.42;;;;;;;16.79;51.13;100246.53;1696582;83;26332;-75
2021/05/27 09:28:26;;;;;;;3.55;0.80;;;;;;;16.92;51.42;100242.23;1640103;84;26019;-77
2021/05/27 09:30:56;;;;;;;5.97;0.85;;;;;;;17.11;50.34;100255.05;1723597;81;25549;-73
2021/05/27 09:33:38;;;;;;;1.17;0.82;;;;;;;17.07;48.72;100257.28;1725771;81;25190;-73
2021/05/27 09:36:17;;;;;;;0.90;0.65;;;;;;;16.84;48.50;100259.92;1725032;81;25941;-72
2021/05/27 09:38:47;;;;;;;2.85;0.85;;;;;;;16.72;49.92;100268.65;1723282;81;25688;-72
2021/05/27 09:41:22;;;;;;;1.92;1.00;;;;;;;16.62;50.56;100270.41;1722347;81;26187;-74
2021/05/27 09:43:55;;;;;;;1.95;1.00;;;;;;;16.56;51.02;100273.86;1723023;81;25610;-76
2021/05/27 09:46:27;;;;;;;3.45;1.10;;;;;;;16.52;49.84;100273.98;1725292;81;25175;-76
2021/05/27 09:49:08;;;;;;;1.50;0.93;;;;;;;16.49;50.27;100277.84;1725785;81;25502;-74
2021/05/27 09:51:36;;;;;;;2.70;0.82;;;;;;;16.45;50.85;100280.60;1712814;82;27223;-73
2021/05/27 09:54:02;;;;;;;2.98;0.80;;;;;;;16.44;50.39;100278.96;1726073;81;25181;-75
2021/05/27 09:56:41;;;;;;;2.85;1.10;;;;;;;16.60;50.75;100279.84;1714809;81;25647;-75
2021/05/27 09:59:09;;;;;;;2.58;0.80;;;;;;;16.77;50.92;100276.79;1729534;81;25521;-75
2021/05/27 10:01:36;;;;;;;2.15;0.88;;;;;;;16.76;50.23;100279.91;1725932;82;25617;-75
2021/05/27 10:04:17;;;;;;;2.15;1.05;;;;;;;16.80;50.20;100282.45;1723694;81;25611;-76
2021/05/27 10:06:44;;;;;;;1.75;0.90;;;;;;;16.84;49.47;100280.23;1722858;81;25590;-75
2021/05/27 10:09:14;;;;;;;1.70;1.05;;;;;;;16.88;50.07;100286.70;1723897;81;25627;-75
2021/05/27 10:11:41;;;;;;;2.12;1.05;;;;;;;16.98;49.81;100275.20;1725970;81;25569;-75
2021/05/27 10:14:07;;;;;;;3.52;1.02;;;;;;;17.10;49.73;100275.34;1721315;81;25454;-75
2021/05/27 10:16:37;;;;;;;2.92;0.98;;;;;;;17.29;49.12;100272.31;1725099;81;25541;-75
2021/05/27 10:19:05;;;;;;;2.12;1.02;;;;;;;17.42;48.68;100282.81;1719569;81;25211;-75
2021/05/27 10:21:31;;;;;;;5.37;1.67;;;;;;;17.59;49.20;100280.98;1719543;81;25465;-75
2021/05/27 10:23:59;;;;;;;1.25;0.90;;;;;;;17.80;49.69;100277.23;1726899;81;34688;-74
2021/05/27 10:26:26;;;;;;;1.40;0.90;;;;;;;17.94;48.04;100282.71;1719742;81;25528;-74
2021/05/27 10:28:54;;;;;;;3.22;1.20;;;;;;;17.72;48.11;100292.80;1720822;81;25568;-74
2021/05/27 10:31:24;;;;;;;3.62;1.00;;;;;;;17.41;48.70;100287.81;1718293;81;25551;-74
2021/05/27 10:33:51;;;;;;;2.77;1.50;;;;;;;17.26;49.56;100284.63;1724018;81;25590;-75
2021/05/27 10:36:17;;;;;;;3.33;1.10;;;;;;;17.26;49.83;100293.36;1720079;81;25546;-74
2021/05/27 10:38:48;;;;;;;4.15;1.12;;;;;;;17.30;49.25;100300.38;1725691;81;25262;-74
2021/05/27 10:41:31;;;;;;;2.90;1.10;;;;;;;17.20;48.43;100297.36;1723984;81;26224;-74
2021/05/27 10:44:07;;;;;;;1.32;0.88;;;;;;;17.30;49.47;100298.53;1725247;81;25637;-75
2021/05/27 10:46:48;;;;;;;2.20;1.12;;;;;;;17.48;49.69;100294.37;1725453;81;25225;-75
2021/05/27 10:49:36;;;;;;;2.22;1.10;;;;;;;17.59;48.73;100296.85;1707023;81;25264;-74
2021/05/27 10:52:32;;;;;;;3.42;1.50;;;;;;;17.58;49.45;100303.17;1706385;81;25552;-74
2021/05/27 10:54:58;;;;;;;3.12;1.50;;;;;;;17.40;49.27;100303.34;1726446;81;25733;-75
2021/05/27 10:57:46;;;;;;;2.85;1.22;;;;;;;17.35;49.61;100307.64;1725236;81;25217;-76
2021/05/27 11:00:21;;;;;;;2.80;1.45;;;;;;;17.36;49.37;100312.73;1660845;84;25243;-77
2021/05/27 11:02:47;;;;;;;2.30;1.67;;;;;;;17.25;48.60;100303.63;1724099;81;25639;-77
2021/05/27 11:05:22;;;;;;;3.67;1.30;;;;;;;17.19;48.71;100306.31;1721754;81;32223;-77
2021/05/27 11:08:20;;;;;;;3.67;1.50;;;;;;;17.17;49.59;100303.06;1720900;81;25654;-76
2021/05/27 11:10:46;;;;;;;2.47;1.50;;;;;;;17.35;49.37;100305.00;1611876;86;25659;-76
2021/05/27 11:13:12;;;;;;;2.35;1.25;;;;;;;17.52;49.63;100310.11;1615110;86;31320;-76
2021/05/27 11:16:03;;;;;;;1.27;1.00;;;;;;;17.60;48.96;100308.55;1618329;86;34773;-76
2021/05/27 11:18:33;;;;;;;2.12;1.25;;;;;;;17.55;47.12;100304.41;1618650;86;25357;-76
2021/05/27 11:21:08;;;;;;;4.22;2.33;;;;;;;17.55;47.15;100307.56;1616043;86;25758;-78
2021/05/27 11:23:34;;;;;;;6.10;2.47;;;;;;;17.59;47.92;100300.30;1611511;86;25699;-78
2021/05/27 11:26:18;;;;;;;2.85;1.70;;;;;;;17.54;47.96;100312.02;1617169;86;31273;-77
2021/05/27 11:28:44;;;;;;;3.58;1.70;;;;;;;17.49;47.81;100305.26;1615527;86;25323;-76
2021/05/27 11:31:10;;;;;;;5.42;1.47;;;;;;;17.41;48.02;100306.83;1617503;86;32928;-73
2021/05/27 11:33:37;;;;;;;2.80;1.40;;;;;;;17.39;48.41;100308.34;1615475;86;26184;-75
2021/05/27 11:36:07;;;;;;;3.33;1.75;;;;;;;17.44;48.12;100315.64;1620675;86;25235;-76
2021/05/27 11:38:36;;;;;;;2.80;1.50;;;;;;;17.36;48.12;100316.69;1617434;86;35190;-78
2021/05/27 11:41:09;;;;;;;3.83;1.55;;;;;;;17.33;48.37;100312.35;1616137;86;25601;-74
2021/05/27 11:43:42;;;;;;;4.05;1.40;;;;;;;17.34;48.58;100313.45;1615718;86;25318;-74
2021/05/27 11:46:18;;;;;;;2.50;1.50;;;;;;;17.38;48.11;100314.66;1655063;81;26569;-77